TAF TJPS
AMD TJPS 280619Z 2806/2906 VRB03KT P6SM SKC FM281400 14008KT P6SM FEW030 SCT050 FM282330 10006KT P6SM FEW030=
METAR TJPS
WC TJPS
WS TJPS
WV TJPS